createdAt,value
2023-04-04T00:00:53.495Z,2.60
2023-04-04T00:03:21.782Z,2.58
2023-04-04T00:05:51.831Z,2.55
2023-04-04T00:08:20.231Z,2.54
2023-04-04T00:10:48.361Z,2.56
2023-04-04T00:13:16.562Z,2.57
2023-04-04T00:15:44.727Z,2.58
2023-04-04T00:18:12.910Z,2.58
2023-04-04T00:20:41.526Z,2.58
2023-04-04T00:23:11.290Z,2.59
2023-04-04T00:25:39.473Z,2.59
2023-04-04T00:28:07.594Z,2.59
2023-04-04T00:30:35.834Z,2.59
2023-04-04T00:33:04.658Z,2.57
2023-04-04T00:35:33.551Z,2.55
2023-04-04T00:38:01.894Z,2.55
2023-04-04T00:40:30.288Z,2.54
2023-04-04T00:43:00.598Z,2.54
2023-04-04T00:45:28.911Z,2.55
2023-04-04T00:47:58.831Z,2.54
2023-04-04T00:50:27.095Z,2.55
2023-04-04T00:52:56.463Z,2.54
2023-04-04T00:55:25.871Z,2.54
2023-04-04T00:57:54.478Z,2.53
2023-04-04T01:00:22.928Z,2.54
2023-04-04T01:02:51.629Z,2.54
2023-04-04T01:05:19.731Z,2.52
2023-04-04T01:07:48.511Z,2.50
2023-04-04T01:10:17.331Z,2.50
2023-04-04T01:12:45.831Z,2.51
2023-04-04T01:15:14.255Z,2.52
2023-04-04T01:17:43.776Z,2.54
2023-04-04T01:20:16.245Z,2.55
2023-04-04T01:22:51.117Z,2.56
2023-04-04T01:25:27.910Z,2.56
2023-04-04T01:27:59.337Z,2.58
2023-04-04T01:30:32.258Z,2.59
2023-04-04T01:33:11.059Z,2.58
2023-04-04T01:35:50.796Z,2.57
2023-04-04T01:38:49.731Z,2.57
2023-04-04T01:41:20.565Z,2.56
2023-04-04T01:43:56.256Z,2.56
2023-04-04T01:46:25.827Z,2.56
2023-04-04T01:48:54.058Z,2.56
2023-04-04T01:51:27.168Z,2.58
2023-04-04T01:53:55.861Z,2.56
2023-04-04T01:56:24.798Z,2.55
2023-04-04T01:58:54.042Z,2.55
2023-04-04T02:01:22.318Z,2.55
2023-04-04T02:03:50.788Z,2.55
2023-04-04T02:06:19.691Z,2.56
2023-04-04T02:08:48.264Z,2.55
2023-04-04T02:11:17.684Z,2.52
2023-04-04T02:13:46.455Z,2.50
2023-04-04T02:16:16.826Z,2.47
2023-04-04T02:18:45.166Z,2.45
2023-04-04T02:21:13.733Z,2.42
2023-04-04T02:23:41.870Z,2.40
2023-04-04T02:26:10.052Z,2.39
2023-04-04T02:28:39.909Z,2.36
2023-04-04T02:31:07.989Z,2.35
2023-04-04T02:33:36.464Z,2.36
2023-04-04T02:36:06.393Z,2.36
2023-04-04T02:38:34.796Z,2.34
2023-04-04T02:41:05.994Z,2.31
2023-04-04T02:43:34.364Z,2.27
2023-04-04T02:46:14.354Z,2.23
2023-04-04T02:48:47.263Z,2.17
2023-04-04T02:51:15.903Z,2.14
2023-04-04T02:53:44.118Z,2.09
2023-04-04T02:56:20.130Z,2.05
2023-04-04T02:58:48.655Z,2.01
2023-04-04T03:01:16.895Z,1.98
2023-04-04T03:03:45.522Z,1.96
2023-04-04T03:06:15.161Z,1.94
2023-04-04T03:08:43.404Z,1.92
2023-04-04T03:11:12.217Z,1.92
2023-04-04T03:13:40.867Z,1.91
2023-04-04T03:16:08.976Z,1.92
2023-04-04T03:18:45.443Z,1.93
2023-04-04T03:21:14.195Z,1.93
2023-04-04T03:23:43.218Z,1.93
2023-04-04T03:26:11.729Z,1.92
2023-04-04T03:28:39.885Z,1.90
2023-04-04T03:31:08.278Z,1.88
2023-04-04T03:33:40.126Z,1.86
2023-04-04T03:36:14.382Z,1.85
2023-04-04T03:38:43.041Z,1.85
2023-04-04T03:41:11.714Z,1.86
2023-04-04T03:43:40.027Z,1.86
2023-04-04T03:46:09.239Z,1.85
2023-04-04T03:48:37.504Z,1.85
2023-04-04T03:51:08.090Z,1.86
2023-04-04T03:53:37.449Z,1.88
2023-04-04T03:56:05.655Z,1.90
2023-04-04T03:58:36.435Z,1.92
2023-04-04T04:01:04.941Z,1.94
2023-04-04T04:03:33.292Z,1.98
2023-04-04T04:06:01.641Z,2.00
2023-04-04T04:08:29.762Z,2.01
2023-04-04T04:11:04.283Z,2.02
2023-04-04T04:13:36.386Z,2.05
2023-04-04T04:16:05.360Z,2.06
2023-04-04T04:18:34.227Z,2.07
2023-04-04T04:21:04.300Z,2.09
2023-04-04T04:23:33.379Z,2.11
2023-04-04T04:26:01.591Z,2.13
2023-04-04T04:28:33.815Z,2.15
2023-04-04T04:31:08.534Z,2.15
2023-04-04T04:33:42.789Z,2.12
2023-04-04T04:36:11.660Z,2.09
2023-04-04T04:38:57.735Z,2.05
2023-04-04T04:41:29.486Z,2.01
2023-04-04T04:43:57.814Z,1.96
2023-04-04T04:46:27.073Z,1.93
2023-04-04T04:48:55.279Z,1.88
2023-04-04T04:51:27.568Z,1.84
2023-04-04T04:53:57.064Z,1.79
2023-04-04T04:56:25.527Z,1.75
2023-04-04T04:58:55.071Z,1.72
2023-04-04T05:01:26.710Z,1.69
2023-04-04T05:03:56.834Z,1.68
2023-04-04T05:06:31.573Z,1.67
2023-04-04T05:09:00.219Z,1.68
2023-04-04T05:11:34.826Z,1.68
2023-04-04T05:14:04.005Z,1.68
2023-04-04T05:16:36.487Z,1.69
2023-04-04T05:19:05.724Z,1.70
2023-04-04T05:21:38.537Z,1.71
2023-04-04T05:24:08.358Z,1.72
2023-04-04T05:26:38.256Z,1.72
2023-04-04T05:29:07.180Z,1.72
2023-04-04T05:31:35.745Z,1.72
2023-04-04T05:34:10.036Z,1.71
2023-04-04T05:36:39.655Z,1.73
2023-04-04T05:39:08.091Z,1.75
2023-04-04T05:41:40.802Z,1.78
2023-04-04T05:44:27.582Z,1.83
2023-04-04T05:46:57.300Z,1.89
2023-04-04T05:49:25.921Z,1.94
2023-04-04T05:51:59.482Z,1.99
2023-04-04T05:54:28.467Z,2.04
2023-04-04T05:56:57.585Z,2.10
2023-04-04T05:59:38.985Z,2.16
2023-04-04T06:02:08.458Z,2.21
2023-04-04T06:04:41.192Z,2.25
2023-04-04T06:07:11.563Z,2.29
2023-04-04T06:09:40.782Z,2.32
2023-04-04T06:12:09.369Z,2.35
2023-04-04T06:14:37.968Z,2.38
2023-04-04T06:17:07.624Z,2.41
2023-04-04T06:19:36.833Z,2.42
2023-04-04T06:22:04.931Z,2.44
2023-04-04T06:24:37.022Z,2.47
2023-04-04T06:27:06.736Z,2.48
2023-04-04T06:29:37.451Z,2.48
2023-04-04T06:32:07.590Z,2.49
2023-04-04T06:34:39.423Z,2.49
2023-04-04T06:37:07.993Z,2.50
2023-04-04T06:39:50.606Z,2.51
2023-04-04T06:42:26.085Z,2.49
2023-04-04T06:44:54.915Z,2.48
2023-04-04T06:47:23.107Z,2.48
2023-04-04T06:49:51.587Z,2.49
2023-04-04T06:52:20.488Z,2.49
2023-04-04T06:54:48.699Z,2.49
2023-04-04T06:57:18.406Z,2.51
2023-04-04T06:59:46.657Z,2.52
2023-04-04T07:02:14.726Z,2.54
2023-04-04T07:04:43.166Z,2.55
2023-04-04T07:07:12.427Z,2.57
2023-04-04T07:09:40.499Z,2.57
2023-04-04T07:12:08.609Z,2.57
2023-04-04T07:14:37.161Z,2.59
2023-04-04T07:17:13.685Z,2.60
2023-04-04T07:19:49.838Z,2.60
2023-04-04T07:22:18.104Z,2.60
2023-04-04T07:24:46.341Z,2.61
2023-04-04T07:27:16.049Z,2.61
2023-04-04T07:29:44.129Z,2.62
2023-04-04T07:32:12.481Z,2.63
2023-04-04T07:34:41.842Z,2.63
2023-04-04T07:37:09.902Z,2.65
2023-04-04T07:39:38.409Z,2.65
2023-04-04T07:42:06.846Z,2.66
2023-04-04T07:44:35.108Z,2.70
2023-04-04T07:47:09.962Z,2.73
2023-04-04T07:49:39.030Z,2.77
2023-04-04T07:52:07.308Z,2.84
2023-04-04T07:54:36.298Z,2.90
2023-04-04T07:57:10.238Z,2.96
2023-04-04T07:59:38.407Z,3.02
2023-04-04T08:02:07.392Z,3.05
2023-04-04T08:04:35.757Z,3.09
2023-04-04T08:07:04.086Z,3.12
2023-04-04T08:09:34.596Z,3.17
2023-04-04T08:12:03.635Z,3.23
2023-04-04T08:14:31.951Z,3.30
2023-04-04T08:17:00.282Z,3.36
2023-04-04T08:19:28.448Z,3.38
2023-04-04T08:21:56.855Z,3.40
2023-04-04T08:24:27.041Z,3.43
2023-04-04T08:27:04.498Z,3.44
2023-04-04T08:29:34.820Z,3.47
2023-04-04T08:32:03.318Z,3.50
2023-04-04T08:34:32.143Z,3.53
2023-04-04T08:37:00.480Z,3.52
2023-04-04T08:39:28.701Z,3.51
2023-04-04T08:42:02.903Z,3.54
2023-04-04T08:44:32.888Z,3.55
2023-04-04T08:47:05.527Z,3.56
2023-04-04T08:49:38.241Z,3.55
2023-04-04T08:52:07.773Z,3.56
2023-04-04T08:54:39.116Z,3.60
2023-04-04T08:57:08.603Z,3.65
2023-04-04T08:59:37.440Z,3.71
2023-04-04T09:02:09.748Z,3.75
2023-04-04T09:04:39.605Z,3.76
2023-04-04T09:07:09.310Z,3.78
2023-04-04T09:09:39.318Z,3.77
2023-04-04T09:12:08.416Z,3.76
2023-04-04T09:14:39.990Z,3.78
2023-04-04T09:17:10.981Z,3.81
2023-04-04T09:19:39.365Z,3.83
2023-04-04T09:22:09.183Z,3.86
2023-04-04T09:24:41.899Z,3.91
2023-04-04T09:27:11.637Z,3.96
2023-04-04T09:29:41.245Z,4.01
2023-04-04T09:32:10.529Z,4.07
2023-04-04T09:34:38.899Z,4.12
2023-04-04T09:37:07.558Z,4.16
2023-04-04T09:39:40.488Z,4.19
2023-04-04T09:42:08.974Z,4.24
2023-04-04T09:44:37.219Z,4.28
2023-04-04T09:50:01.073Z,4.37
2023-04-04T09:52:36.042Z,4.41
2023-04-04T09:55:06.656Z,4.43
2023-04-04T09:57:38.038Z,4.46
2023-04-04T10:00:11.324Z,4.48
2023-04-04T10:02:47.058Z,4.51
2023-04-04T10:05:16.862Z,4.57
2023-04-04T10:07:45.006Z,4.62
2023-04-04T10:10:14.023Z,4.67
2023-04-04T10:12:46.990Z,4.71
2023-04-04T10:15:16.632Z,4.74
2023-04-04T10:17:45.804Z,4.78
2023-04-04T10:20:14.161Z,4.81
2023-04-04T10:22:44.990Z,4.85
2023-04-04T10:25:14.334Z,4.89
2023-04-04T10:27:42.422Z,4.93
2023-04-04T10:30:11.392Z,4.98
2023-04-04T10:33:02.627Z,5.01
2023-04-04T10:35:31.957Z,5.06
2023-04-04T10:38:03.088Z,5.11
2023-04-04T10:40:35.973Z,5.15
2023-04-04T10:43:05.861Z,5.19
2023-04-04T10:45:40.661Z,5.23
2023-04-04T10:48:10.641Z,5.28
2023-04-04T10:50:39.547Z,5.33
2023-04-04T10:53:08.774Z,5.36
2023-04-04T10:55:39.183Z,5.41
2023-04-04T10:58:09.005Z,5.45
2023-04-04T11:00:51.950Z,5.48
2023-04-04T11:03:20.331Z,5.50
2023-04-04T11:05:51.167Z,5.50
2023-04-04T11:08:27.420Z,5.51
2023-04-04T11:10:57.625Z,5.56
2023-04-04T11:13:27.334Z,5.61
2023-04-04T11:15:58.131Z,5.65
2023-04-04T11:18:33.991Z,5.71
2023-04-04T11:21:05.381Z,5.76
2023-04-04T11:24:15.929Z,5.80
2023-04-04T11:26:46.197Z,5.85
2023-04-04T11:29:22.427Z,5.87
2023-04-04T11:31:51.526Z,5.89
2023-04-04T11:34:33.326Z,5.90
2023-04-04T11:37:17.942Z,5.92
2023-04-04T11:39:59.162Z,5.94
2023-04-04T11:42:34.440Z,5.97
2023-04-04T11:45:10.378Z,5.99
2023-04-04T11:47:39.395Z,6.01
2023-04-04T11:50:10.183Z,6.04
2023-04-04T11:52:40.988Z,6.07
2023-04-04T11:55:20.093Z,6.12
2023-04-04T11:57:51.623Z,6.20
2023-04-04T12:00:47.124Z,6.22
2023-04-04T12:03:21.922Z,6.13
2023-04-04T12:05:50.268Z,6.11
2023-04-04T12:08:19.118Z,6.14
2023-04-04T12:10:47.251Z,6.12
2023-04-04T12:13:16.487Z,6.05
2023-04-04T12:15:45.307Z,6.00
2023-04-04T12:18:22.176Z,6.03
2023-04-04T12:20:54.335Z,6.09
2023-04-04T12:23:22.478Z,6.14
2023-04-04T12:25:54.943Z,6.17
2023-04-04T12:28:23.557Z,6.26
2023-04-04T12:30:52.184Z,6.36
2023-04-04T12:33:21.334Z,6.45
2023-04-04T12:35:53.726Z,6.53
2023-04-04T12:38:21.862Z,6.59
2023-04-04T12:40:51.535Z,6.68
2023-04-04T12:43:21.014Z,6.80
2023-04-04T12:45:54.759Z,6.94
2023-04-04T12:48:29.075Z,7.07
2023-04-04T12:50:59.289Z,7.21
2023-04-04T12:53:30.046Z,7.33
2023-04-04T12:56:05.280Z,7.42
2023-04-04T12:58:35.996Z,7.43
2023-04-04T13:01:07.145Z,7.44
2023-04-04T13:03:37.990Z,7.46
2023-04-04T13:06:16.303Z,7.40
2023-04-04T13:08:54.406Z,7.38
2023-04-04T13:11:22.922Z,7.40
2023-04-04T13:14:04.366Z,7.46
2023-04-04T13:16:37.373Z,7.57
2023-04-04T13:19:05.721Z,7.69
2023-04-04T13:21:35.250Z,7.80
2023-04-04T13:24:04.275Z,7.93
2023-04-04T13:26:32.687Z,8.04
2023-04-04T13:29:01.000Z,8.13
2023-04-04T13:31:29.358Z,8.22
2023-04-04T13:33:57.545Z,8.30
2023-04-04T13:36:28.546Z,8.40
2023-04-04T13:38:57.203Z,8.52
2023-04-04T13:41:25.474Z,8.59
2023-04-04T13:43:53.580Z,8.60
2023-04-04T13:46:21.673Z,8.60
2023-04-04T13:48:49.984Z,8.63
2023-04-04T13:51:18.050Z,8.67
2023-04-04T13:53:46.261Z,8.75
2023-04-04T13:56:18.428Z,8.85
2023-04-04T13:58:48.255Z,8.93
2023-04-04T14:01:16.710Z,9.07
2023-04-04T14:03:44.897Z,9.16
2023-04-04T14:06:13.059Z,9.19
2023-04-04T14:08:41.625Z,9.26
2023-04-04T14:11:09.677Z,9.34
2023-04-04T14:13:37.796Z,9.32
2023-04-04T14:16:08.125Z,9.33
2023-04-04T14:18:36.343Z,9.26
2023-04-04T14:21:05.477Z,9.22
2023-04-04T14:23:33.619Z,9.11
2023-04-04T14:26:01.786Z,8.88
2023-04-04T14:28:30.120Z,8.57
2023-04-04T14:30:58.160Z,8.22
2023-04-04T14:33:26.411Z,7.93
2023-04-04T14:35:54.487Z,7.63
2023-04-04T14:38:23.007Z,7.54
2023-04-04T14:40:51.046Z,7.56
2023-04-04T14:43:19.580Z,7.37
2023-04-04T14:45:48.254Z,7.17
2023-04-04T14:48:16.307Z,7.00
2023-04-04T14:50:46.040Z,6.78
2023-04-04T14:53:14.321Z,6.64
2023-04-04T14:55:42.652Z,6.52
2023-04-04T14:58:10.939Z,6.32
2023-04-04T15:00:39.659Z,6.18
2023-04-04T15:03:08.522Z,6.11
2023-04-04T15:05:36.805Z,6.03
2023-04-04T15:08:05.021Z,5.97
2023-04-04T15:10:33.248Z,5.93
2023-04-04T15:13:01.333Z,5.89
2023-04-04T15:15:29.413Z,5.86
2023-04-04T15:17:58.692Z,5.82
2023-04-04T15:20:26.871Z,5.79
2023-04-04T15:22:55.050Z,5.74
2023-04-04T15:25:23.389Z,5.81
2023-04-04T15:27:51.479Z,5.92
2023-04-04T15:30:19.684Z,5.99
2023-04-04T15:32:47.947Z,6.08
2023-04-04T15:35:19.259Z,6.25
2023-04-04T15:37:49.119Z,6.50
2023-04-04T15:40:18.782Z,6.74
2023-04-04T15:42:48.001Z,6.89
2023-04-04T15:45:16.406Z,7.02
2023-04-04T15:47:45.173Z,7.22
2023-04-04T15:50:13.953Z,7.41
2023-04-04T15:52:42.190Z,7.40
2023-04-04T15:55:12.973Z,7.21
2023-04-04T15:57:44.573Z,7.00
2023-04-04T16:00:14.134Z,6.99
2023-04-04T16:02:42.806Z,7.07
2023-04-04T16:05:11.359Z,7.11
2023-04-04T16:07:39.498Z,7.15
2023-04-04T16:10:08.210Z,7.17
2023-04-04T16:12:36.566Z,7.15
2023-04-04T16:15:07.092Z,7.23
2023-04-04T16:17:35.351Z,7.27
2023-04-04T16:20:05.122Z,7.18
2023-04-04T16:22:33.458Z,6.94
2023-04-04T16:25:01.525Z,6.67
2023-04-04T16:27:29.817Z,6.45
2023-04-04T16:29:58.183Z,6.27
2023-04-04T16:32:26.504Z,6.12
2023-04-04T16:34:54.671Z,6.02
2023-04-04T16:37:23.387Z,5.90
2023-04-04T16:39:52.174Z,5.88
2023-04-04T16:42:20.356Z,5.86
2023-04-04T16:44:48.938Z,5.76
2023-04-04T16:47:16.991Z,5.60
2023-04-04T16:49:47.532Z,5.42
2023-04-04T16:52:16.101Z,5.26
2023-04-04T16:54:44.357Z,5.12
2023-04-04T16:57:12.470Z,4.94
2023-04-04T16:59:40.887Z,4.75
2023-04-04T17:02:09.697Z,4.62
2023-04-04T17:04:41.960Z,4.58
2023-04-04T17:07:11.012Z,4.55
2023-04-04T17:09:39.450Z,4.52
2023-04-04T17:12:08.452Z,4.46
2023-04-04T17:14:37.380Z,4.40
2023-04-04T17:17:05.943Z,4.31
2023-04-04T17:19:35.337Z,4.17
2023-04-04T17:22:03.836Z,4.06
2023-04-04T17:24:32.291Z,3.97
2023-04-04T17:27:01.616Z,3.90
2023-04-04T17:29:30.313Z,3.82
2023-04-04T17:31:58.634Z,3.73
2023-04-04T17:34:26.978Z,3.65
2023-04-04T17:36:55.775Z,3.58
2023-04-04T17:39:24.421Z,3.50
2023-04-04T17:41:53.171Z,3.44
2023-04-04T17:44:22.468Z,3.40
2023-04-04T17:46:51.196Z,3.37
2023-04-04T17:49:20.699Z,3.33
2023-04-04T17:51:50.741Z,3.31
2023-04-04T17:54:21.832Z,3.30
2023-04-04T17:56:50.475Z,3.26
2023-04-04T17:59:18.833Z,3.22
2023-04-04T18:01:47.433Z,3.19
2023-04-04T18:04:16.422Z,3.17
2023-04-04T18:06:44.581Z,3.12
2023-04-04T18:09:13.461Z,3.09
2023-04-04T18:11:42.091Z,3.08
2023-04-04T18:14:10.168Z,3.08
2023-04-04T18:16:40.846Z,3.06
2023-04-04T18:19:09.977Z,3.04
2023-04-04T18:21:38.718Z,3.01
2023-04-04T18:24:11.384Z,3.00
2023-04-04T18:26:39.754Z,2.97
2023-04-04T18:29:08.379Z,2.97
2023-04-04T18:31:36.931Z,2.93
2023-04-04T18:34:05.254Z,2.90
2023-04-04T18:36:33.356Z,2.89
2023-04-04T18:39:03.604Z,2.87
2023-04-04T18:41:32.502Z,2.85
2023-04-04T18:44:00.867Z,2.83
2023-04-04T18:46:29.597Z,2.81
2023-04-04T18:48:58.573Z,2.79
2023-04-04T18:51:26.977Z,2.77
2023-04-04T18:53:55.378Z,2.77
2023-04-04T18:56:23.525Z,2.78
2023-04-04T18:58:52.341Z,2.80
2023-04-04T19:01:21.237Z,2.79
2023-04-04T19:03:51.958Z,2.76
2023-04-04T19:06:26.941Z,2.74
2023-04-04T19:08:58.645Z,2.70
2023-04-04T19:11:32.962Z,2.69
2023-04-04T19:14:01.140Z,2.68
2023-04-04T19:16:29.540Z,2.67
2023-04-04T19:18:57.665Z,2.67
2023-04-04T19:21:26.292Z,2.67
2023-04-04T19:23:54.617Z,2.67
2023-04-04T19:26:22.703Z,2.68
2023-04-04T19:28:51.250Z,2.69
2023-04-04T19:31:22.302Z,2.71
2023-04-04T19:33:51.773Z,2.72
2023-04-04T19:36:20.055Z,2.72
2023-04-04T19:38:51.898Z,2.72
2023-04-04T19:41:33.832Z,2.74
2023-04-04T19:44:03.517Z,2.72
2023-04-04T19:46:33.228Z,2.72
2023-04-04T19:49:27.985Z,2.72
2023-04-04T19:51:58.697Z,2.69
2023-04-04T19:54:29.149Z,2.68
2023-04-04T19:57:01.074Z,2.65
2023-04-04T19:59:57.012Z,2.66
2023-04-04T20:02:31.436Z,2.66
2023-04-04T20:05:00.182Z,2.66
2023-04-04T20:07:29.778Z,2.65
2023-04-04T20:09:58.069Z,2.64
2023-04-04T20:12:33.881Z,2.64
2023-04-04T20:15:01.937Z,2.64
2023-04-04T20:17:30.110Z,2.63
2023-04-04T20:19:58.337Z,2.63
2023-04-04T20:22:26.592Z,2.64
2023-04-04T20:24:54.772Z,2.64
2023-04-04T20:27:24.415Z,2.63
2023-04-04T20:29:54.166Z,2.63
2023-04-04T20:32:22.562Z,2.62
2023-04-04T20:34:50.907Z,2.62
2023-04-04T20:37:26.277Z,2.63
2023-04-04T20:40:09.920Z,2.63
2023-04-04T20:42:40.825Z,2.64
2023-04-04T20:45:09.049Z,2.63
2023-04-04T20:47:48.912Z,2.62
2023-04-04T20:50:17.194Z,2.63
2023-04-04T20:53:03.151Z,2.64
2023-04-04T20:55:33.546Z,2.65
2023-04-04T20:58:10.262Z,2.68
2023-04-04T21:00:41.082Z,2.71
2023-04-04T21:03:31.014Z,2.76
2023-04-04T21:06:11.088Z,2.80
2023-04-04T21:08:50.717Z,2.84
2023-04-04T21:11:29.203Z,2.88
2023-04-04T21:13:57.784Z,2.93
2023-04-04T21:16:28.032Z,2.96
2023-04-04T21:19:00.877Z,3.00
2023-04-04T21:21:29.677Z,3.01
2023-04-04T21:24:00.119Z,3.03
2023-04-04T21:26:40.906Z,3.06
2023-04-04T21:29:25.354Z,3.10
2023-04-04T21:31:55.715Z,3.14
2023-04-04T21:34:25.816Z,3.18
2023-04-04T21:37:07.896Z,3.20
2023-04-04T21:39:38.700Z,3.21
2023-04-04T21:42:08.831Z,3.23
2023-04-04T21:44:38.661Z,3.23
2023-04-04T21:47:07.164Z,3.22
2023-04-04T21:49:35.218Z,3.23
2023-04-04T21:52:03.268Z,3.25
2023-04-04T21:54:31.546Z,3.25
2023-04-04T21:56:59.633Z,3.23
2023-04-04T21:59:27.874Z,3.21
2023-04-04T22:01:56.281Z,3.20
2023-04-04T22:04:24.817Z,3.18
2023-04-04T22:06:52.934Z,3.16
2023-04-04T22:09:22.720Z,3.13
2023-04-04T22:11:51.317Z,3.12
2023-04-04T22:14:19.357Z,3.08
2023-04-04T22:16:47.605Z,3.06
2023-04-04T22:19:15.887Z,3.05
2023-04-04T22:21:48.475Z,3.05
2023-04-04T22:24:18.447Z,3.04
2023-04-04T22:26:47.041Z,3.03
2023-04-04T22:29:17.462Z,3.00
2023-04-04T22:31:45.762Z,2.99
2023-04-04T22:34:15.268Z,2.98
2023-04-04T22:36:46.929Z,2.98
2023-04-04T22:39:16.558Z,2.99
2023-04-04T22:41:44.758Z,3.00
2023-04-04T22:44:12.977Z,3.01
2023-04-04T22:46:41.699Z,3.04
2023-04-04T22:49:10.227Z,3.05
2023-04-04T22:51:45.985Z,3.06
2023-04-04T22:54:18.137Z,3.07
2023-04-04T22:56:46.586Z,3.06
2023-04-04T22:59:14.764Z,3.03
2023-04-04T23:01:43.269Z,3.02
2023-04-04T23:04:11.576Z,3.01
2023-04-04T23:06:39.774Z,3.00
2023-04-04T23:09:08.409Z,2.98
2023-04-04T23:11:39.900Z,2.98
2023-04-04T23:14:09.047Z,2.99
2023-04-04T23:16:37.853Z,2.98
2023-04-04T23:19:06.243Z,2.95
2023-04-04T23:21:38.004Z,2.92
2023-04-04T23:24:07.362Z,2.91
2023-04-04T23:26:35.584Z,2.91
2023-04-04T23:29:04.048Z,2.90
2023-04-04T23:31:32.733Z,2.91
2023-04-04T23:34:01.005Z,2.91
2023-04-04T23:36:29.296Z,2.90
2023-04-04T23:38:57.875Z,2.89
2023-04-04T23:41:26.448Z,2.89
2023-04-04T23:43:54.840Z,2.89
2023-04-04T23:46:24.146Z,2.89
2023-04-04T23:48:52.365Z,2.90
2023-04-04T23:51:21.596Z,2.90
2023-04-04T23:53:49.845Z,2.91
2023-04-04T23:56:18.259Z,2.90
2023-04-04T23:58:46.360Z,2.89
